createdAt,value
2017-06-12T03:31:07.438Z,22.30
2017-06-12T03:33:35.098Z,22.20
2017-06-12T03:36:02.740Z,22.20
2017-06-12T03:38:37.646Z,22.20
2017-06-12T03:41:05.294Z,22.30
2017-06-12T03:43:32.957Z,22.20
2017-06-12T03:46:00.948Z,22.30
2017-06-12T03:48:29.357Z,22.30
2017-06-12T03:50:56.986Z,22.30
2017-06-12T03:53:24.974Z,22.30
2017-06-12T03:55:52.630Z,22.30
2017-06-12T03:58:21.043Z,22.30
2017-06-12T04:00:49.093Z,22.30
2017-06-12T04:03:16.924Z,22.30
2017-06-12T04:05:44.593Z,22.30
2017-06-12T04:08:12.585Z,22.30
2017-06-12T04:10:40.251Z,22.10
2017-06-12T04:13:07.972Z,22.10
2017-06-12T04:15:36.009Z,22.20
2017-06-12T04:18:03.665Z,22.40
2017-06-12T04:20:31.317Z,22.50
2017-06-12T04:22:59.387Z,22.50
2017-06-12T04:25:27.037Z,22.40
2017-06-12T04:27:54.684Z,22.50
2017-06-12T04:30:23.480Z,22.80
2017-06-12T04:32:51.905Z,22.70
2017-06-12T04:35:20.703Z,22.70
2017-06-12T04:37:48.712Z,22.70
2017-06-12T04:40:17.096Z,22.70
2017-06-12T04:42:46.473Z,22.80
2017-06-12T04:45:14.470Z,22.80
2017-06-12T04:47:42.910Z,22.80
2017-06-12T04:50:10.587Z,22.80
2017-06-12T04:52:38.563Z,22.90
2017-06-12T04:55:06.197Z,23.00
2017-06-12T04:57:33.839Z,23.10
2017-06-12T05:00:01.877Z,23.00
2017-06-12T05:02:30.296Z,23.00
2017-06-12T05:04:57.964Z,23.00
2017-06-12T05:07:25.996Z,23.10
2017-06-12T05:09:53.643Z,22.90
2017-06-12T05:12:22.070Z,23.00
2017-06-12T05:14:50.105Z,23.00
2017-06-12T05:17:18.525Z,23.10
2017-06-12T05:19:46.176Z,23.10
2017-06-12T05:22:14.168Z,23.20
2017-06-12T05:24:41.822Z,23.20
2017-06-12T05:27:09.481Z,23.20
2017-06-12T05:29:37.506Z,23.50
2017-06-12T05:32:05.181Z,23.60
2017-06-12T05:34:32.841Z,23.60
2017-06-12T05:37:00.908Z,23.20
2017-06-12T05:39:28.562Z,23.00
2017-06-12T05:41:57.054Z,23.10
2017-06-12T05:44:25.125Z,23.10
2017-06-12T05:46:52.783Z,23.10
2017-06-12T05:49:20.446Z,23.20
2017-06-12T05:51:48.505Z,23.30
2017-06-12T05:54:16.933Z,23.60
2017-06-12T05:56:44.569Z,23.60
2017-06-12T05:59:12.635Z,23.80
2017-06-12T06:01:40.290Z,23.90
2017-06-12T06:04:07.948Z,24.10
2017-06-12T06:06:36.020Z,24.00
2017-06-12T06:09:03.668Z,24.00
2017-06-12T06:11:32.083Z,24.10
2017-06-12T06:14:00.169Z,24.10
2017-06-12T06:16:27.818Z,24.20
2017-06-12T06:18:55.462Z,24.30
2017-06-12T06:21:23.613Z,24.20
2017-06-12T06:23:52.027Z,24.10
2017-06-12T06:26:19.674Z,24.10
2017-06-12T06:28:47.725Z,24.00
2017-06-12T06:31:16.157Z,23.80
2017-06-12T06:33:43.812Z,23.80
2017-06-12T06:36:11.784Z,23.70
2017-06-12T06:38:39.431Z,23.60
2017-06-12T06:41:07.095Z,23.50
2017-06-12T06:43:35.141Z,23.60
2017-06-12T06:46:03.607Z,23.70
2017-06-12T06:48:31.238Z,23.70
2017-06-12T06:50:59.254Z,23.50
2017-06-12T06:53:27.694Z,23.70
2017-06-12T06:55:55.343Z,23.70
2017-06-12T06:58:23.377Z,23.80
2017-06-12T07:00:51.017Z,23.90
2017-06-12T07:03:19.429Z,23.60
2017-06-12T07:05:47.473Z,23.60
2017-06-12T07:08:15.963Z,23.90
2017-06-12T07:10:43.609Z,23.90
2017-06-12T07:13:12.401Z,23.80
2017-06-12T07:15:40.102Z,23.80
2017-06-12T07:18:07.762Z,23.90
2017-06-12T07:20:35.794Z,23.90
2017-06-12T07:23:03.440Z,23.70
2017-06-12T07:25:31.098Z,23.80
2017-06-12T07:27:59.100Z,24.10
2017-06-12T07:30:27.524Z,24.60
2017-06-12T07:32:55.200Z,24.60
2017-06-12T07:35:23.324Z,24.80
2017-06-12T07:37:50.960Z,24.70
2017-06-12T07:40:19.393Z,24.90
2017-06-12T07:42:47.522Z,24.90
2017-06-12T07:45:16.036Z,25.10
2017-06-12T07:47:43.669Z,25.30
2017-06-12T07:50:12.468Z,25.20
2017-06-12T07:52:40.111Z,25.20
2017-06-12T07:55:08.533Z,25.30
2017-06-12T07:57:36.585Z,25.30
2017-06-12T08:00:04.232Z,25.90
2017-06-12T08:02:32.637Z,26.60
2017-06-12T08:05:00.709Z,26.60
2017-06-12T08:07:28.384Z,26.40
2017-06-12T08:09:56.037Z,26.30
2017-06-12T08:12:24.083Z,26.10
2017-06-12T08:14:51.727Z,26.20
2017-06-12T08:17:20.153Z,26.10
2017-06-12T08:19:48.192Z,26.10
2017-06-12T08:22:15.856Z,26.50
2017-06-12T08:24:43.562Z,26.00
2017-06-12T08:27:11.543Z,26.10
2017-06-12T08:29:39.192Z,26.10
2017-06-12T08:32:06.842Z,26.00
2017-06-12T08:34:34.876Z,26.40
2017-06-12T08:37:03.490Z,26.80
2017-06-12T08:39:31.260Z,26.80
2017-06-12T08:41:59.288Z,26.00
2017-06-12T08:44:27.689Z,27.20
2017-06-12T08:46:55.368Z,27.20
2017-06-12T08:49:23.532Z,27.50
2017-06-12T08:51:51.170Z,27.10
2017-06-12T08:54:19.762Z,28.80
2017-06-12T08:56:47.975Z,28.80
2017-06-12T08:59:15.820Z,28.40
2017-06-12T09:01:43.489Z,28.20
2017-06-12T09:04:11.144Z,27.70
2017-06-12T09:06:38.828Z,27.20
2017-06-12T09:09:06.487Z,27.50
2017-06-12T09:11:34.886Z,27.40
2017-06-12T09:14:02.572Z,27.20
2017-06-12T09:16:31.097Z,28.10
2017-06-12T09:18:59.077Z,28.00
2017-06-12T09:21:26.756Z,27.50
2017-06-12T09:23:54.506Z,27.10
2017-06-12T09:26:22.547Z,26.70
2017-06-12T09:28:50.171Z,26.60
2017-06-12T09:31:18.031Z,26.90
2017-06-12T09:33:46.160Z,27.80
2017-06-12T09:36:13.824Z,27.70
2017-06-12T09:38:41.633Z,27.40
2017-06-12T09:41:09.591Z,26.70
2017-06-12T09:43:37.236Z,27.20
2017-06-12T09:46:04.890Z,26.80
2017-06-12T09:48:32.904Z,27.30
2017-06-12T09:51:00.556Z,28.00
2017-06-12T09:53:28.228Z,28.00
2017-06-12T09:55:55.957Z,27.00
2017-06-12T09:58:23.625Z,26.10
2017-06-12T10:00:51.292Z,25.60
2017-06-12T10:03:18.949Z,25.30
2017-06-12T10:05:47.190Z,25.40
2017-06-12T10:08:14.976Z,25.60
2017-06-12T10:10:43.725Z,26.50
2017-06-12T10:13:12.191Z,28.20
2017-06-12T10:15:40.624Z,28.10
2017-06-12T10:18:08.301Z,28.10
2017-06-12T10:20:35.973Z,28.70
2017-06-12T10:23:03.645Z,29.40
2017-06-12T10:25:31.353Z,29.40
2017-06-12T10:28:00.236Z,29.10
2017-06-12T10:30:28.765Z,29.10
2017-06-12T10:32:56.461Z,28.70
2017-06-12T10:35:25.148Z,28.10
2017-06-12T10:37:53.583Z,28.50
2017-06-12T10:40:21.326Z,28.50
2017-06-12T10:42:48.981Z,28.50
2017-06-12T10:45:17.004Z,28.20
2017-06-12T10:47:44.795Z,27.70
2017-06-12T10:50:12.779Z,27.60
2017-06-12T10:52:40.998Z,27.80
2017-06-12T10:55:11.926Z,28.00
2017-06-12T10:57:57.376Z,27.80
2017-06-12T11:00:25.379Z,27.50
2017-06-12T11:02:54.128Z,27.80
2017-06-12T11:05:21.785Z,28.30
2017-06-12T11:07:49.501Z,28.40
2017-06-12T11:10:19.982Z,28.10
2017-06-12T11:12:47.994Z,27.60
2017-06-12T11:15:15.692Z,27.10
2017-06-12T11:17:44.171Z,26.70
2017-06-12T11:20:12.695Z,27.10
2017-06-12T11:22:40.357Z,27.10
2017-06-12T11:25:08.045Z,27.70
2017-06-12T11:27:35.929Z,27.70
2017-06-12T11:30:06.210Z,27.90
2017-06-12T11:32:34.033Z,27.20
2017-06-12T11:35:02.287Z,26.90
2017-06-12T11:37:29.943Z,26.80
2017-06-12T11:39:57.966Z,26.70
2017-06-12T11:42:25.655Z,27.10
2017-06-12T11:44:53.380Z,27.40
2017-06-12T11:47:21.713Z,27.80
2017-06-12T11:49:49.368Z,28.00
2017-06-12T11:52:17.013Z,28.00
2017-06-12T11:54:45.062Z,27.70
2017-06-12T11:57:12.702Z,27.50
2017-06-12T11:59:40.478Z,27.10
2017-06-12T12:02:09.269Z,26.80
2017-06-12T12:04:36.930Z,26.80
2017-06-12T12:07:05.361Z,27.00
2017-06-12T12:09:33.486Z,27.00
2017-06-12T12:12:01.170Z,26.60
2017-06-12T12:14:28.815Z,26.60
2017-06-12T12:16:56.797Z,26.40
2017-06-12T12:19:24.649Z,26.60
2017-06-12T12:21:52.305Z,27.00
2017-06-12T12:24:20.005Z,27.40
2017-06-12T12:26:47.685Z,27.60
2017-06-12T12:29:15.353Z,27.70
2017-06-12T12:31:43.036Z,28.00
2017-06-12T12:34:10.760Z,27.50
2017-06-12T12:36:38.415Z,27.30
2017-06-12T12:39:06.679Z,26.90
2017-06-12T12:41:34.340Z,26.70
2017-06-12T12:44:02.006Z,26.50
2017-06-12T12:46:29.664Z,26.40
2017-06-12T12:48:57.323Z,26.40
2017-06-12T12:51:24.996Z,26.40
2017-06-12T12:53:52.660Z,26.50
2017-06-12T12:56:20.336Z,26.60
2017-06-12T12:58:47.977Z,27.10
2017-06-12T13:01:15.674Z,27.40
2017-06-12T13:03:43.779Z,27.90
2017-06-12T13:06:12.194Z,27.80
2017-06-12T13:08:39.851Z,27.70
2017-06-12T13:11:07.524Z,27.90
2017-06-12T13:13:35.171Z,27.50
2017-06-12T13:16:03.234Z,27.80
2017-06-12T13:18:30.884Z,27.80
2017-06-12T13:20:59.293Z,27.00
2017-06-12T13:23:27.330Z,27.00
2017-06-12T13:25:55.773Z,26.40
2017-06-12T13:28:23.455Z,26.30
2017-06-12T13:30:51.132Z,26.20
2017-06-12T13:33:19.544Z,26.40
2017-06-12T13:35:47.582Z,26.40
2017-06-12T13:38:15.994Z,26.20
2017-06-12T13:40:43.684Z,26.20
2017-06-12T13:43:11.705Z,26.00
2017-06-12T13:45:39.351Z,26.10
2017-06-12T13:48:07.771Z,26.00
2017-06-12T13:50:35.829Z,26.00
2017-06-12T13:53:03.479Z,25.70
2017-06-12T13:55:31.133Z,25.70
2017-06-12T13:57:59.869Z,26.00
2017-06-12T14:00:27.524Z,26.00
2017-06-12T14:02:55.180Z,26.20
2017-06-12T14:05:23.151Z,26.10
2017-06-12T14:07:50.792Z,26.20
2017-06-12T14:10:18.455Z,26.50
2017-06-12T14:12:46.517Z,26.30
2017-06-12T14:15:14.169Z,26.20
2017-06-12T14:17:42.590Z,26.30
2017-06-12T14:20:10.629Z,26.30
2017-06-12T14:22:38.286Z,26.60
2017-06-12T14:25:07.368Z,26.60
2017-06-12T14:27:36.365Z,26.30
2017-06-12T14:30:04.949Z,26.40
2017-06-12T14:32:33.515Z,26.20
2017-06-12T14:35:01.228Z,26.20
2017-06-12T14:37:29.251Z,26.10
2017-06-12T14:39:57.010Z,25.80
2017-06-12T14:42:24.645Z,25.80
2017-06-12T14:44:52.313Z,26.00
2017-06-12T14:47:19.961Z,26.00
2017-06-12T14:49:48.290Z,26.30
2017-06-12T14:52:16.734Z,26.20
2017-06-12T14:54:44.572Z,26.20
2017-06-12T14:57:12.229Z,26.30
2017-06-12T14:59:40.738Z,26.10
2017-06-12T15:02:08.552Z,26.30
2017-06-12T15:04:36.965Z,26.70
2017-06-12T15:07:04.739Z,26.70
2017-06-12T15:09:32.520Z,26.50
2017-06-12T15:12:00.519Z,26.20
2017-06-12T15:14:28.939Z,26.10
2017-06-12T15:16:56.613Z,26.10
2017-06-12T15:19:24.370Z,26.00
2017-06-12T15:21:52.028Z,26.10
2017-06-12T15:24:19.995Z,26.40
2017-06-12T15:26:47.666Z,26.30
2017-06-12T15:29:15.303Z,26.50
2017-06-12T15:31:42.969Z,26.30
2017-06-12T15:34:10.688Z,25.90
2017-06-12T15:36:38.430Z,25.90
2017-06-12T15:39:06.092Z,25.70
2017-06-12T15:41:34.135Z,25.60
2017-06-12T15:44:01.813Z,25.90
2017-06-12T15:46:29.463Z,26.00
2017-06-12T15:48:57.208Z,25.70
2017-06-12T15:51:24.895Z,25.40
2017-06-12T15:53:52.565Z,25.20
2017-06-12T15:56:20.324Z,25.30
2017-06-12T15:58:47.993Z,25.60
2017-06-12T16:01:15.652Z,25.70
2017-06-12T16:03:43.697Z,25.90
2017-06-12T16:06:11.563Z,25.80
2017-06-12T16:08:39.212Z,25.70
2017-06-12T16:11:07.707Z,25.30
2017-06-12T16:13:35.427Z,25.30
2017-06-12T16:16:03.083Z,25.40
2017-06-12T16:18:30.739Z,25.30
2017-06-12T16:20:58.787Z,25.10
2017-06-12T16:23:26.416Z,25.10
2017-06-12T16:25:54.839Z,25.30
2017-06-12T16:28:22.520Z,25.30
2017-06-12T16:30:50.191Z,25.20
2017-06-12T16:33:17.940Z,24.90
2017-06-12T16:35:45.588Z,24.90
2017-06-12T16:38:13.395Z,25.00
2017-06-12T16:40:41.059Z,24.80
2017-06-12T16:43:09.885Z,24.70
2017-06-12T16:45:37.524Z,24.60
2017-06-12T16:48:05.951Z,24.60
2017-06-12T16:50:33.639Z,24.50
2017-06-12T16:53:01.275Z,24.50
2017-06-12T16:55:28.941Z,24.30
2017-06-12T16:57:56.611Z,24.10
2017-06-12T17:00:24.275Z,24.20
2017-06-12T17:02:51.915Z,24.50
2017-06-12T17:05:20.211Z,24.60
2017-06-12T17:07:47.902Z,24.80
2017-06-12T17:10:16.389Z,25.00
2017-06-12T17:12:44.833Z,24.70
2017-06-12T17:15:12.568Z,24.60
2017-06-12T17:17:40.316Z,24.50
2017-06-12T17:20:08.002Z,24.40
2017-06-12T17:22:36.032Z,24.20
2017-06-12T17:25:04.461Z,24.10
2017-06-12T17:27:32.197Z,24.00
2017-06-12T17:29:59.874Z,23.90
2017-06-12T17:32:27.543Z,23.80
2017-06-12T17:34:55.325Z,23.90
2017-06-12T17:37:23.055Z,24.10
2017-06-12T17:39:50.734Z,23.80
2017-06-12T17:42:18.492Z,23.70
2017-06-12T17:44:47.144Z,23.80
2017-06-12T17:47:15.565Z,23.40
2017-06-12T17:49:43.229Z,23.40
2017-06-12T17:52:10.909Z,23.40
2017-06-12T17:54:38.557Z,23.30
2017-06-12T17:57:06.798Z,23.20
2017-06-12T17:59:34.515Z,23.00
2017-06-12T18:02:02.147Z,23.00
2017-06-12T18:04:30.191Z,22.90
2017-06-12T18:06:58.138Z,23.00
2017-06-12T18:09:25.866Z,22.90
2017-06-12T18:11:53.553Z,22.90
2017-06-12T18:14:21.256Z,22.80
2017-06-12T18:16:49.325Z,23.00
2017-06-12T18:19:16.978Z,23.40
2017-06-12T18:21:44.632Z,23.50
2017-06-12T18:24:13.421Z,23.00
2017-06-12T18:26:41.850Z,23.10
2017-06-12T18:29:09.499Z,23.10
2017-06-12T18:31:37.481Z,23.10
2017-06-12T18:34:05.127Z,23.10
2017-06-12T18:36:32.940Z,22.90
2017-06-12T18:39:00.961Z,23.10
2017-06-12T18:41:28.612Z,23.10
2017-06-12T18:43:56.264Z,23.10
2017-06-12T18:46:24.315Z,22.90
2017-06-12T18:48:52.729Z,22.60
2017-06-12T18:51:20.394Z,22.60
2017-06-12T18:53:48.451Z,22.60
2017-06-12T18:56:16.105Z,22.60
2017-06-12T18:58:43.764Z,22.40
2017-06-12T19:01:11.788Z,22.40
2017-06-12T19:03:39.459Z,22.20
2017-06-12T19:06:07.121Z,22.20
2017-06-12T19:08:35.139Z,22.20
2017-06-12T19:11:03.266Z,22.10
2017-06-12T19:13:30.934Z,21.90
2017-06-12T19:15:59.056Z,21.90
2017-06-12T19:18:26.775Z,21.80
2017-06-12T19:20:54.448Z,21.80
2017-06-12T19:23:23.265Z,21.60
2017-06-12T19:25:50.947Z,21.60
2017-06-12T19:28:19.500Z,21.60
2017-06-12T19:30:47.573Z,21.40
2017-06-12T19:33:15.229Z,21.40
2017-06-12T19:35:42.907Z,21.50
2017-06-12T19:38:11.008Z,21.40
2017-06-12T19:40:38.744Z,21.70
2017-06-12T19:43:06.421Z,21.90
2017-06-12T19:45:34.552Z,22.00
2017-06-12T19:48:02.221Z,21.90
2017-06-12T19:50:30.787Z,21.60
2017-06-12T19:52:59.930Z,21.50
2017-06-12T19:55:27.634Z,21.40
2017-06-12T19:57:55.335Z,21.20
2017-06-12T20:00:22.982Z,21.00
2017-06-12T20:02:51.890Z,21.00
2017-06-12T20:05:19.546Z,21.00
2017-06-12T20:07:47.654Z,20.90
2017-06-12T20:10:15.525Z,20.80
2017-06-12T20:25:48.301Z,20.90
2017-06-12T20:28:15.962Z,20.70
2017-06-12T20:30:43.680Z,20.70
2017-06-12T20:33:12.049Z,20.80
2017-06-12T20:35:40.529Z,21.10
2017-06-12T20:38:09.381Z,20.90
2017-06-12T20:40:37.601Z,20.90
2017-06-12T20:43:06.096Z,21.10
2017-06-12T20:45:33.732Z,21.10
2017-06-12T20:48:02.156Z,21.00
2017-06-12T20:50:30.008Z,21.00
2017-06-12T20:52:57.683Z,20.90
2017-06-12T20:55:25.448Z,20.90
2017-06-12T20:57:53.485Z,20.90
2017-06-12T21:00:21.886Z,21.20
2017-06-12T21:02:49.571Z,21.20
2017-06-12T21:05:17.242Z,21.20
2017-06-12T21:07:44.983Z,21.20
2017-06-12T21:10:12.678Z,21.60
2017-06-12T21:12:40.340Z,21.80
2017-06-12T21:15:08.137Z,22.00
2017-06-12T21:17:36.541Z,22.20
2017-06-12T21:20:05.217Z,22.20
2017-06-12T21:22:32.856Z,22.10
2017-06-12T21:25:01.299Z,21.80
2017-06-12T21:27:28.965Z,21.80
2017-06-12T21:29:56.615Z,21.60
